Santa Ana, Bolivia
Current Conditions -  °F | °C
As of 11:00 AM on Friday 24 Oct 2014 (Local Time) from SLSA Reporting Station
Broken Clouds Broken Clouds  
Wind Chill: 82°   Ceiling: 20000
Heat Index: 88°   Visibility: 4mi
Dew Point: 73°   Wind: 8mph
Humidity: 74%   Direction: 140°SE
Pressure: 29.85"   Gusts: NA
Location:  13.77°S, 65.56°W
Report Text: SLSA 241500Z 14007KT 6000 SCT017 FEW023CB SCT080 BKN200 28/23 Q1011
Loading
Personal Weather Stations






























Interactive Weather Map
Tropical Storm Tracking
New forecast layout! Learn more

10-Day Weather Forecast

Advertisements
Track Severe Weather on mobile